Park Rapids, MN

6:41 AM CDT on September 01, 2014 (GMT -0500)
Park Rapids Municipal | Change Station
CLOSE
Current Station
Airport
Location: Park Rapids,
Elevation: 1440 ft
Nearby Weather Stations

Elev 1440 ft 46.90 °N, 95.07 °W | Updated 48 minutes ago

Partly Cloudy
Partly Cloudy
55 °F
Feels Like 55 °F
N
6
Wind Variable Wind from West

Today
High -- | Low -- °F
--% Chance of Precip.
Yesterday
High -- | Low -- °F
Precip. -- in
6:39 AM 7:59 PM
Waxing Crescent, 40% visible
Pressure 29.66 in
Visibility 10.0 miles
Clouds Few 5000 ft
Dew Point 55 °F
Humidity 100%
Rainfall 0.00 in
Snow Depth Not available.
UV 0 out of 12
Pollen 8.00 out of 12
Air Quality Not available.
Flu Activity Not available.
METAR KPKD 011053Z AUTO 28005KT 10SM FEW050 13/13 A2966 RMK AO2 SLP044 T01280128 TSNO

More Conditions Fewer Conditions

Pressure 29.66 in
Visibility 10.0 miles
Clouds Few 5000 ft
Dew Point 55 °F
Humidity 100%
Rainfall 0.00 in
Snow Depth Not available.
UV 0 out of 12
Pollen 8.00 out of 12
Air Quality Not available.
Flu Activity Not available.
METAR KPKD 011053Z AUTO 28005KT 10SM FEW050 13/13 A2966 RMK AO2 SLP044 T01280128 TSNO

More Conditions Fewer Conditions

10-Day Weather Forecast

Almanac

Astronomy

Sep. 01, 2014 Rise Set
Actual Time 6:39 AM CDT 7:59 PM CDT
Civil Twilight 6:08 AM CDT 8:31 PM CDT
Nautical Twilight 5:30 AM CDT 9:08 PM CDT
Astronomical Twilight 4:49 AM CDT 9:49 PM CDT
Moon 1:52 PM CDT 11:35 PM CDT
Length of Visible Light 14h 22m
Length of Day
13h 19m
Tomorrow will be 3m 14s shorter.
Waxing Crescent, 40% of the Moon is Illuminated
Today
Waxing Crescent
Sep 2
First Quarter
Sep 8
Full
Sep 15
Last Quarter
Sep 24
New

Today's Extremes

State Highs State Lows

Community

WunderPhotos

Upload Photos

1,749,192 photos uploaded!

Nearby

Snow Depth

Station Depth Elevation
No new snow has been reported.

Earthquake Activity

City Distance Mag. Time & Date
No recent earthquake activity has been reported nearby.
Minimum magnitude displayed is 2.5.

Coastal Water Temperatures

Place Temperature
No Stations Reporting

Nearby Weather Stations